Mount Pocono, PA

3:37 AM EST on February 27, 2015 (GMT -0500)
Pocono Mountains Municipal | Change Station
CLOSE
Current Station
Airport
Location: Mt. Pocono,
Elevation: 1916 ft
Nearby Weather Stations

Elev 1916 ft 41.14 °N, 75.38 °W | Updated 44 minutes ago

Mostly Cloudy
Mostly Cloudy
7 °F
Feels Like -6 °F
N
8
Wind Variable Wind from NW

Today
High -- | Low -- °F
--% Chance of Precip.
Yesterday
High -- | Low -- °F
Precip. -- in
6:39 AM 5:49 PM
Waxing Gibbous, 67% visible
Pressure 30.17 in
Visibility 10.0 miles
Clouds Mostly Cloudy 4600 ft
Windchill -6 °F
Dew Point 2 °F
Humidity 80%
Rainfall 0.00 in
Snow Depth Not available.
UV 0 out of 12
Pollen .50 out of 12
Air Quality Not available.
Flu Activity Not available.
METAR KMPO 270753Z AUTO 32007KT 10SM BKN046 M14/M17 A3006 RMK AO2 SLP217 T11391167

More Conditions Fewer Conditions

Pressure 30.17 in
Visibility 10.0 miles
Clouds Mostly Cloudy 4600 ft
Windchill -6 °F
Dew Point 2 °F
Humidity 80%
Rainfall 0.00 in
Snow Depth Not available.
UV 0 out of 12
Pollen .50 out of 12
Air Quality Not available.
Flu Activity Not available.
METAR KMPO 270753Z AUTO 32007KT 10SM BKN046 M14/M17 A3006 RMK AO2 SLP217 T11391167

More Conditions Fewer Conditions

10-Day Weather Forecast

Almanac

Astronomy

Feb. 27, 2015 Rise Set
Actual Time
Civil Twilight
Nautical Twilight
Astronomical Twilight
Moon
Length of Visible Light
Length of Day
Tomorrow will be .
, % of the Moon is Illuminated

Today's Extremes

State Highs State Lows

Community

WunderPhotos

Upload Photos

1,800,649 photos uploaded!

WunderBlogs® & News

Nearby

Air Quality

  Air Quality AQ Index Pollutant
Not available.

Snow Depth

Station Depth Elevation

Earthquake Activity

City Distance Mag. Time & Date
Minimum magnitude displayed is 2.5.

Coastal Water Temperatures

Place Temperature

Nearby Weather Stations